Pagrindinis puslapis
METAR-TAF:

METAR-TAF

Oro uostai :

Kobicha, Bolivija

platuma: 11-02S, ilguma: 068-47W, Aukštis: 235 m

Dabartinis oras

Ataskaita buvo paskelbta 54 minutes, ne 13:00 UTC
Vėjas 3 kt iš Šiaurės
Temperatūra 29°C
Drėgmė 70%
Slėgis 1012 hPa
Matomumas: 3000 m
dūmai

METAR: SLCO 201300Z 36003KT 3000 FU NSC 29/23 Q1012

Laikas: 09:54 (13:54 UTC)

Prognozė

Ataskaita buvo paskelbta 3 valandos ir 4 minutes, ne 10:50 UTC
Prognozė galioja nuo 20 metu 12 UTC su 21 metu 12 UTC
Vėjas 8 kt iš Šiaurės/Šiaurės Vakarų
Matomumas: 5000 m
Mažai debesys ne aukštis 2300 ft
dūmai
Tapsmas
nuo 20 metu 23 UTC su 21 metu 01 UTC
Vėjas kt iš Šiaurės
Laikinai
nuo 21 metu 02 UTC su 21 metu 06 UTC
Matomumas: 8000 m
Mažai debesys ne aukštis 1700 ft, Liūtiniai kamuoliniai debesys.
perkūnija, lietus

TAF: SLCO 201050Z 2012/2112 34008KT 5000 FU FEW023 TX37/2020Z TN21/ 2111Z BECMG 2023/2101 00000KT TEMPO 2102/2106 8000 TSRA FEW017CB

Orai ataskaitas ir orų prognozės (METAR, TAF).

turimą stotys yra geltonos ir raudonos taškus žemėlapyje.

Perkelti pele per norėdami pamatyti stoties vardą.

Tada spustelėkite, norėdami matyti oro stebėjimo ir prognozės.

Norėdami pakeisti žemėlapį: spustelėkite ant žalios mygtukų su juodo kryžiaus žemyn,; žalią mygtuką su brūkšneliu, jei norite nutolinti; arba žalių rodyklių gretimoms žemėlapius.


METAR-TAF: